createdAt,value
2022-11-12T00:01:19.260Z,45.35
2022-11-12T00:03:43.657Z,42.51
2022-11-12T00:06:11.080Z,42.10
2022-11-12T00:08:36.523Z,39.97
2022-11-12T00:11:01.102Z,37.33
2022-11-12T00:13:25.581Z,35.49
2022-11-12T00:15:50.858Z,34.93
2022-11-12T00:18:15.479Z,33.70
2022-11-12T00:20:39.753Z,35.21
2022-11-12T00:23:08.819Z,36.95
2022-11-12T00:25:33.503Z,41.96
2022-11-12T00:28:05.284Z,45.65
2022-11-12T00:30:30.682Z,43.90
2022-11-12T00:32:55.347Z,49.42
2022-11-12T00:35:24.724Z,51.38
2022-11-12T00:37:49.923Z,51.75
2022-11-12T00:40:22.506Z,52.62
2022-11-12T00:42:50.586Z,54.36
2022-11-12T00:45:16.195Z,53.66
2022-11-12T00:47:40.525Z,54.29
2022-11-12T00:50:04.882Z,57.53
2022-11-12T00:52:30.373Z,56.82
2022-11-12T00:54:54.569Z,56.05
2022-11-12T00:57:21.746Z,56.80
2022-11-12T00:59:46.864Z,52.79
2022-11-12T01:02:12.779Z,52.56
2022-11-12T01:04:37.230Z,50.93
2022-11-12T01:07:02.806Z,49.24
2022-11-12T01:09:27.642Z,47.84
2022-11-12T01:11:54.636Z,48.53
2022-11-12T01:14:22.842Z,48.28
2022-11-12T01:16:48.045Z,48.87
2022-11-12T01:19:14.905Z,48.62
2022-11-12T01:21:44.300Z,48.88
2022-11-12T01:24:10.253Z,50.31
2022-11-12T01:26:34.661Z,50.20
2022-11-12T01:29:01.814Z,49.13
2022-11-12T01:31:32.490Z,48.99
2022-11-12T01:34:00.207Z,48.78
2022-11-12T01:36:27.624Z,50.52
2022-11-12T01:38:53.692Z,49.03
2022-11-12T01:41:23.666Z,49.05
2022-11-12T01:43:49.522Z,47.87
2022-11-12T01:46:24.241Z,46.29
2022-11-12T01:48:59.212Z,45.01
2022-11-12T01:51:31.993Z,42.23
2022-11-12T01:54:06.091Z,41.77
2022-11-12T01:56:35.080Z,41.43
2022-11-12T01:59:11.445Z,42.48
2022-11-12T02:01:37.659Z,41.57
2022-11-12T02:04:05.401Z,39.68
2022-11-12T02:06:30.296Z,38.42
2022-11-12T02:08:56.531Z,36.19
2022-11-12T02:11:24.707Z,35.52
2022-11-12T02:14:05.164Z,36.82
2022-11-12T02:16:37.330Z,34.59
2022-11-12T02:19:07.874Z,35.38
2022-11-12T02:21:37.455Z,34.01
2022-11-12T02:24:05.591Z,33.35
2022-11-12T02:26:37.646Z,33.57
2022-11-12T02:29:03.368Z,34.27
2022-11-12T02:31:28.573Z,33.81
2022-11-12T02:33:55.621Z,33.60
2022-11-12T02:36:21.334Z,33.02
2022-11-12T02:38:48.552Z,32.84
2022-11-12T02:41:13.184Z,32.68
2022-11-12T02:43:38.284Z,32.81
2022-11-12T02:46:02.841Z,32.72
2022-11-12T02:48:27.998Z,31.99
2022-11-12T02:50:53.202Z,31.51
2022-11-12T02:53:18.040Z,31.55
2022-11-12T02:55:46.416Z,32.04
2022-11-12T02:58:11.696Z,31.73
2022-11-12T03:00:36.460Z,31.46
2022-11-12T03:03:03.808Z,32.96
2022-11-12T03:05:33.011Z,32.85
2022-11-12T03:08:01.959Z,33.44
2022-11-12T03:10:30.411Z,34.51
2022-11-12T03:13:00.838Z,34.92
2022-11-12T03:15:25.058Z,37.37
2022-11-12T03:17:51.227Z,38.52
2022-11-12T03:20:15.905Z,33.39
2022-11-12T03:22:40.858Z,31.03
2022-11-12T03:25:07.523Z,31.18
2022-11-12T03:27:32.004Z,32.18
2022-11-12T03:29:58.943Z,31.03
2022-11-12T03:32:24.658Z,30.61
2022-11-12T03:34:54.299Z,30.79
2022-11-12T03:37:21.725Z,29.69
2022-11-12T03:39:47.151Z,29.20
2022-11-12T03:42:11.791Z,30.01
2022-11-12T03:44:39.334Z,30.58
2022-11-12T03:47:07.460Z,30.39
2022-11-12T03:49:32.054Z,29.88
2022-11-12T03:51:56.771Z,28.45
2022-11-12T03:54:23.126Z,27.79
2022-11-12T03:56:47.943Z,27.09
2022-11-12T03:59:12.320Z,28.84
2022-11-12T04:01:37.714Z,27.85
2022-11-12T04:04:04.726Z,28.41
2022-11-12T04:06:41.890Z,29.47
2022-11-12T04:09:07.432Z,33.35
2022-11-12T04:11:32.075Z,34.30
2022-11-12T04:13:53.886Z,38.16
2022-11-12T04:16:36.522Z,39.60
2022-11-12T04:19:18.843Z,36.34
2022-11-12T04:21:55.114Z,36.84
2022-11-12T04:24:33.799Z,33.24
2022-11-12T04:26:58.994Z,33.30
2022-11-12T04:29:39.001Z,32.68
2022-11-12T04:32:04.913Z,30.81
2022-11-12T04:34:34.962Z,31.98
2022-11-12T04:36:59.235Z,30.78
2022-11-12T04:39:24.384Z,31.01
2022-11-12T04:42:01.195Z,30.23
2022-11-12T04:44:39.028Z,31.28
2022-11-12T04:47:03.607Z,30.32
2022-11-12T04:49:28.788Z,29.16
2022-11-12T04:52:08.023Z,27.85
2022-11-12T04:54:33.185Z,28.94
2022-11-12T04:57:00.034Z,27.61
2022-11-12T04:59:24.335Z,29.08
2022-11-12T05:01:49.715Z,31.69
2022-11-12T05:04:14.312Z,34.31
2022-11-12T05:06:51.227Z,29.92
2022-11-12T05:09:18.933Z,27.92
2022-11-12T05:11:43.397Z,28.89
2022-11-12T05:14:07.843Z,30.51
2022-11-12T05:16:33.016Z,31.09
2022-11-12T05:18:57.526Z,34.94
2022-11-12T05:21:36.909Z,36.31
2022-11-12T05:24:04.340Z,35.17
2022-11-12T05:26:32.430Z,34.42
2022-11-12T05:28:56.582Z,35.07
2022-11-12T05:31:21.882Z,34.51
2022-11-12T05:33:46.471Z,34.04
2022-11-12T05:36:12.055Z,33.93
2022-11-12T05:38:39.365Z,34.22
2022-11-12T05:41:03.948Z,33.81
2022-11-12T05:43:31.018Z,37.15
2022-11-12T05:45:56.025Z,37.41
2022-11-12T05:48:24.282Z,37.93
2022-11-12T05:51:11.975Z,37.16
2022-11-12T05:53:37.805Z,37.60
2022-11-12T05:56:05.168Z,35.93
2022-11-12T05:58:32.673Z,35.95
2022-11-12T06:00:58.013Z,33.46
2022-11-12T06:03:22.661Z,35.01
2022-11-12T06:05:48.698Z,39.13
2022-11-12T06:08:15.869Z,38.19
2022-11-12T06:10:40.229Z,40.43
2022-11-12T06:13:05.153Z,47.22
2022-11-12T06:15:39.248Z,38.27
2022-11-12T06:18:03.752Z,38.80
2022-11-12T06:20:28.480Z,32.55
2022-11-12T06:22:54.776Z,30.90
2022-11-12T06:25:19.362Z,33.15
2022-11-12T06:27:43.868Z,38.36
2022-11-12T06:30:12.613Z,38.70
2022-11-12T06:32:39.874Z,38.29
2022-11-12T06:35:04.889Z,38.99
2022-11-12T06:37:29.984Z,36.14
2022-11-12T06:39:54.538Z,35.25
2022-11-12T06:42:19.944Z,31.97
2022-11-12T06:44:45.623Z,29.78
2022-11-12T06:47:09.981Z,28.11
2022-11-12T06:49:37.171Z,26.16
2022-11-12T06:52:02.182Z,24.86
2022-11-12T06:54:26.883Z,34.51
2022-11-12T06:56:51.668Z,36.98
2022-11-12T06:59:16.989Z,32.31
2022-11-12T07:01:41.468Z,28.63
2022-11-12T07:04:08.268Z,25.12
2022-11-12T07:06:37.697Z,23.27
2022-11-12T07:09:01.968Z,23.23
2022-11-12T07:11:26.517Z,23.18
2022-11-12T07:13:51.927Z,21.98
2022-11-12T07:16:20.510Z,20.92
2022-11-12T07:18:44.799Z,20.66
2022-11-12T07:21:15.142Z,22.38
2022-11-12T07:23:42.288Z,21.89
2022-11-12T07:26:09.987Z,22.25
2022-11-12T07:28:36.739Z,20.85
2022-11-12T07:31:06.064Z,19.40
2022-11-12T07:33:32.789Z,18.40
2022-11-12T07:36:02.300Z,17.86
2022-11-12T07:38:27.392Z,16.83
2022-11-12T07:40:54.765Z,17.11
2022-11-12T07:43:20.050Z,17.18
2022-11-12T07:45:44.347Z,16.26
2022-11-12T07:48:09.764Z,16.66
2022-11-12T07:50:34.720Z,16.41
2022-11-12T07:53:01.849Z,15.80
2022-11-12T07:55:25.988Z,16.09
2022-11-12T07:57:53.800Z,16.29
2022-11-12T08:00:21.761Z,16.31
2022-11-12T08:02:46.269Z,16.47
2022-11-12T08:05:16.499Z,16.91
2022-11-12T08:07:44.501Z,17.68
2022-11-12T08:10:12.284Z,16.56
2022-11-12T08:12:38.183Z,17.91
2022-11-12T08:15:08.415Z,15.96
2022-11-12T08:17:33.971Z,16.45
2022-11-12T08:23:47.033Z,27.44
2022-11-12T08:26:17.472Z,21.22
2022-11-12T08:28:42.732Z,16.00
2022-11-12T08:31:12.880Z,25.47
2022-11-12T08:33:45.797Z,29.12
2022-11-12T08:36:24.936Z,24.97
2022-11-12T08:38:51.398Z,82.82
2022-11-12T08:41:18.276Z,66.94
2022-11-12T08:43:44.666Z,33.45
2022-11-12T08:46:13.429Z,37.57
2022-11-12T08:48:40.230Z,24.89
2022-11-12T08:51:06.847Z,14.77
2022-11-12T08:53:32.389Z,14.66
2022-11-12T08:56:06.898Z,14.06
2022-11-12T08:58:31.880Z,13.76
2022-11-12T09:00:57.227Z,26.56
2022-11-12T09:03:27.824Z,29.38
2022-11-12T09:05:54.958Z,29.35
2022-11-12T09:08:31.195Z,21.89
2022-11-12T09:10:56.390Z,23.43
2022-11-12T09:13:23.796Z,17.82
2022-11-12T09:15:51.075Z,14.92
2022-11-12T09:18:20.136Z,13.56
2022-11-12T09:20:50.831Z,13.06
2022-11-12T09:23:19.098Z,17.31
2022-11-12T09:25:45.839Z,17.92
2022-11-12T09:28:16.518Z,13.02
2022-11-12T09:30:46.862Z,12.96
2022-11-12T09:33:11.927Z,12.62
2022-11-12T09:35:36.422Z,12.74
2022-11-12T09:38:04.928Z,12.02
2022-11-12T09:40:49.087Z,12.44
2022-11-12T09:43:28.016Z,12.63
2022-11-12T09:46:13.903Z,13.57
2022-11-12T09:48:55.689Z,13.87
2022-11-12T09:51:38.853Z,12.75
2022-11-12T09:54:27.385Z,13.74
2022-11-12T09:56:54.142Z,15.02
2022-11-12T09:59:20.364Z,14.51
2022-11-12T10:02:05.216Z,16.28
2022-11-12T10:05:15.364Z,15.55
2022-11-12T10:08:07.769Z,14.27
2022-11-12T10:10:50.100Z,14.08
2022-11-12T10:13:49.816Z,13.62
2022-11-12T10:16:46.953Z,13.44
2022-11-12T10:19:40.079Z,12.42
2022-11-12T10:22:27.797Z,11.35
2022-11-12T10:24:53.035Z,11.72
2022-11-12T10:27:26.469Z,11.24
2022-11-12T10:30:04.625Z,10.76
2022-11-12T10:32:30.264Z,12.50
2022-11-12T10:34:54.895Z,12.47
2022-11-12T10:37:30.819Z,10.58
2022-11-12T10:39:56.743Z,8.85
2022-11-12T10:42:26.370Z,7.62
2022-11-12T10:44:52.082Z,8.44
2022-11-12T10:47:30.649Z,9.35
2022-11-12T10:50:23.005Z,9.38
2022-11-12T10:53:01.929Z,10.06
2022-11-12T10:55:28.840Z,7.41
2022-11-12T10:58:21.054Z,7.76
2022-11-12T11:00:59.931Z,7.75
2022-11-12T11:03:30.626Z,7.30
2022-11-12T11:06:01.316Z,7.47
2022-11-12T11:08:40.856Z,8.19
2022-11-12T11:11:30.496Z,7.40
2022-11-12T11:14:11.515Z,7.46
2022-11-12T11:16:53.815Z,7.15
2022-11-12T11:19:19.495Z,7.48
2022-11-12T11:22:13.563Z,7.41
2022-11-12T11:24:51.877Z,6.55
2022-11-12T11:27:35.344Z,6.69
2022-11-12T11:30:16.391Z,7.25
2022-11-12T11:33:16.767Z,7.57
2022-11-12T11:36:05.375Z,8.89
2022-11-12T11:38:42.506Z,6.48
2022-11-12T11:41:31.451Z,7.12
2022-11-12T11:44:17.095Z,8.28
2022-11-12T11:47:05.786Z,7.81
2022-11-12T11:50:01.096Z,7.41
2022-11-12T11:52:49.690Z,7.15
2022-11-12T11:55:39.796Z,7.76
2022-11-12T11:58:37.714Z,8.30
2022-11-12T12:01:20.314Z,7.70
2022-11-12T12:04:15.225Z,6.90
2022-11-12T12:06:55.870Z,7.94
2022-11-12T12:09:40.971Z,8.31
2022-11-12T12:12:26.598Z,9.56
2022-11-12T12:15:18.612Z,7.13
2022-11-12T12:18:02.563Z,6.85
2022-11-12T12:20:44.895Z,7.24
2022-11-12T12:23:27.578Z,7.27
2022-11-12T12:26:00.519Z,7.47
2022-11-12T12:28:40.382Z,6.89
2022-11-12T12:31:14.770Z,7.26
2022-11-12T12:33:52.666Z,7.90
2022-11-12T12:36:29.283Z,7.03
2022-11-12T12:39:07.198Z,7.23
2022-11-12T12:41:46.761Z,9.41
2022-11-12T12:44:14.171Z,9.92
2022-11-12T12:46:48.423Z,9.59
2022-11-12T12:49:24.956Z,7.81
2022-11-12T12:51:55.757Z,7.72
2022-11-12T12:55:00.504Z,9.31
2022-11-12T12:57:44.057Z,8.46
2022-11-12T13:00:34.344Z,9.32
2022-11-12T13:03:00.311Z,8.68
2022-11-12T13:05:37.364Z,8.14
2022-11-12T13:08:14.166Z,9.69
2022-11-12T13:10:57.942Z,9.12
2022-11-12T13:13:42.011Z,6.97
2022-11-12T13:16:06.970Z,6.47
2022-11-12T13:19:04.483Z,6.79
2022-11-12T13:21:29.553Z,6.47
2022-11-12T13:24:11.773Z,6.57
2022-11-12T13:26:56.806Z,6.82
2022-11-12T13:29:42.963Z,10.39
2022-11-12T13:32:34.225Z,8.29
2022-11-12T13:35:32.311Z,6.75
2022-11-12T13:38:01.670Z,6.67
2022-11-12T13:40:49.580Z,9.69
2022-11-12T13:43:25.499Z,9.78
2022-11-12T13:46:00.536Z,12.16
2022-11-12T13:48:31.780Z,15.20
2022-11-12T13:51:04.431Z,11.16
2022-11-12T13:53:31.937Z,8.41
2022-11-12T13:56:03.330Z,7.43
2022-11-12T13:58:33.575Z,6.98
2022-11-12T14:01:03.838Z,6.80
2022-11-12T14:03:35.693Z,7.19
2022-11-12T14:06:10.728Z,7.28
2022-11-12T14:09:13.328Z,7.95
2022-11-12T14:12:12.848Z,8.05
2022-11-12T14:15:06.215Z,9.40
2022-11-12T14:17:55.445Z,9.19
2022-11-12T14:20:32.610Z,11.23
2022-11-12T14:22:58.065Z,11.58
2022-11-12T14:25:26.944Z,12.14
2022-11-12T14:27:55.900Z,11.79
2022-11-12T14:30:29.744Z,13.95
2022-11-12T14:33:00.705Z,13.34
2022-11-12T14:35:40.412Z,11.42
2022-11-12T14:38:21.303Z,12.09
2022-11-12T14:40:53.307Z,11.87
2022-11-12T14:43:40.753Z,12.37
2022-11-12T14:46:09.881Z,12.75
2022-11-12T14:48:50.024Z,13.99
2022-11-12T14:51:18.782Z,14.33
2022-11-12T14:53:52.315Z,14.18
2022-11-12T14:56:35.549Z,14.44
2022-11-12T14:59:03.904Z,15.24
2022-11-12T15:02:20.887Z,16.23
2022-11-12T15:04:26.182Z,16.71
2022-11-12T15:06:57.044Z,18.75
2022-11-12T15:09:36.537Z,19.78
2022-11-12T15:12:04.777Z,20.17
2022-11-12T15:14:32.444Z,22.87
2022-11-12T15:16:57.196Z,22.61
2022-11-12T15:19:27.265Z,25.29
2022-11-12T15:21:55.859Z,25.43
2022-11-12T15:24:29.601Z,25.31
2022-11-12T15:26:57.270Z,24.66
2022-11-12T15:29:34.192Z,23.63
2022-11-12T15:32:03.944Z,24.74
2022-11-12T15:34:37.245Z,25.06
2022-11-12T15:37:08.261Z,34.67
2022-11-12T15:39:35.549Z,45.10
2022-11-12T15:42:04.104Z,50.22
2022-11-12T15:44:39.122Z,60.77
2022-11-12T15:47:05.024Z,60.74
2022-11-12T15:49:30.660Z,55.05
2022-11-12T15:51:57.795Z,46.77
2022-11-12T15:54:22.111Z,42.35
2022-11-12T15:56:47.653Z,59.38
2022-11-12T15:59:19.928Z,72.33
2022-11-12T16:01:47.995Z,63.87
2022-11-12T16:04:15.638Z,53.20
2022-11-12T16:06:39.843Z,51.24
2022-11-12T16:09:04.080Z,49.79
2022-11-12T16:11:41.235Z,38.81
2022-11-12T16:14:07.722Z,34.90
2022-11-12T16:16:32.668Z,34.96
2022-11-12T16:18:59.547Z,36.58
2022-11-12T16:21:24.049Z,40.97
2022-11-12T16:23:49.256Z,57.31
2022-11-12T16:26:23.865Z,188.33
2022-11-12T16:28:48.037Z,121.88
2022-11-12T16:31:13.434Z,106.64
2022-11-12T16:33:37.624Z,120.39
2022-11-12T16:36:17.078Z,173.51
2022-11-12T16:38:41.928Z,150.45
2022-11-12T16:41:16.893Z,167.15
2022-11-12T16:43:42.866Z,181.98
2022-11-12T16:46:22.278Z,112.73
2022-11-12T16:48:47.443Z,74.92
2022-11-12T16:51:20.451Z,82.34
2022-11-12T16:53:45.517Z,85.22
2022-11-12T16:56:16.640Z,77.65
2022-11-12T16:58:41.518Z,76.51
2022-11-12T17:01:06.154Z,75.09
2022-11-12T17:03:31.162Z,66.01
2022-11-12T17:05:56.082Z,78.65
2022-11-12T17:08:22.840Z,171.73
2022-11-12T17:10:50.643Z,229.29
2022-11-12T17:13:17.970Z,346.01
2022-11-12T17:15:42.933Z,421.67
2022-11-12T17:18:09.943Z,583.09
2022-11-12T17:20:35.176Z,660.69
2022-11-12T17:23:00.597Z,469.58
2022-11-12T17:25:28.611Z,415.60
2022-11-12T17:27:52.889Z,332.40
2022-11-12T17:30:20.366Z,159.50
2022-11-12T17:33:08.661Z,119.71
2022-11-12T17:35:36.537Z,174.65
2022-11-12T17:38:00.923Z,179.12
2022-11-12T17:40:38.715Z,200.90
2022-11-12T17:43:03.966Z,190.11
2022-11-12T17:45:30.015Z,180.29
2022-11-12T17:47:55.980Z,180.42
2022-11-12T17:50:20.788Z,162.15
2022-11-12T17:52:45.383Z,211.07
2022-11-12T17:55:12.367Z,245.58
2022-11-12T17:57:39.325Z,155.64
2022-11-12T18:00:03.877Z,124.96
2022-11-12T18:02:29.355Z,108.85
2022-11-12T18:04:58.485Z,119.42
2022-11-12T18:07:22.797Z,107.81
2022-11-12T18:09:48.422Z,106.06
2022-11-12T18:12:12.964Z,111.80
2022-11-12T18:14:40.109Z,92.02
2022-11-12T18:17:14.712Z,98.79
2022-11-12T18:19:40.567Z,100.37
2022-11-12T18:22:06.960Z,106.86
2022-11-12T18:24:31.363Z,111.16
2022-11-12T18:27:03.878Z,115.76
2022-11-12T18:29:31.388Z,122.17
2022-11-12T18:31:58.714Z,132.75
2022-11-12T18:34:24.046Z,112.79
2022-11-12T18:36:53.343Z,104.21
2022-11-12T18:39:23.662Z,84.54
2022-11-12T18:41:47.850Z,84.70
2022-11-12T18:44:13.194Z,86.94
2022-11-12T18:46:37.571Z,94.65
2022-11-12T18:49:15.235Z,80.31
2022-11-12T18:51:40.667Z,89.58
2022-11-12T18:54:10.885Z,88.78
2022-11-12T18:56:38.083Z,81.94
2022-11-12T18:59:03.010Z,95.38
2022-11-12T19:01:28.096Z,92.55
2022-11-12T19:03:58.132Z,92.63
2022-11-12T19:06:29.836Z,87.61
2022-11-12T19:08:56.385Z,82.31
2022-11-12T19:11:23.480Z,91.50
2022-11-12T19:13:53.679Z,81.54
2022-11-12T19:16:22.815Z,73.93
2022-11-12T19:18:59.031Z,81.77
2022-11-12T19:21:26.546Z,84.05
2022-11-12T19:23:57.530Z,73.46
2022-11-12T19:26:22.006Z,81.98
2022-11-12T19:28:48.295Z,76.93
2022-11-12T19:31:20.056Z,77.51
2022-11-12T19:33:44.544Z,76.10
2022-11-12T19:36:13.370Z,72.81
2022-11-12T19:38:38.816Z,78.10
2022-11-12T19:41:14.669Z,80.54
2022-11-12T19:43:42.335Z,81.02
2022-11-12T19:46:08.975Z,82.39
2022-11-12T19:48:33.650Z,83.09
2022-11-12T19:51:03.352Z,83.49
2022-11-12T19:53:27.345Z,82.65
2022-11-12T19:55:51.575Z,84.98
2022-11-12T19:58:19.508Z,84.93
2022-11-12T20:00:43.876Z,84.01
2022-11-12T20:03:08.350Z,85.50
2022-11-12T20:05:34.124Z,85.66
2022-11-12T20:07:58.769Z,83.02
2022-11-12T20:10:24.852Z,81.49
2022-11-12T20:12:50.547Z,80.75
2022-11-12T20:15:17.998Z,82.48
2022-11-12T20:17:42.444Z,83.40
2022-11-12T20:20:09.520Z,85.83
2022-11-12T20:22:36.306Z,83.38
2022-11-12T20:25:00.869Z,81.69
2022-11-12T20:27:26.056Z,80.96
2022-11-12T20:29:50.218Z,74.23
2022-11-12T20:32:17.422Z,68.41
2022-11-12T20:34:42.593Z,64.78
2022-11-12T20:37:06.965Z,61.24
2022-11-12T20:39:32.714Z,62.38
2022-11-12T20:41:58.038Z,60.59
2022-11-12T20:44:22.580Z,60.52
2022-11-12T20:46:46.866Z,62.42
2022-11-12T20:49:14.685Z,59.25
2022-11-12T20:51:39.923Z,67.90
2022-11-12T20:54:07.724Z,82.28
2022-11-12T20:56:34.209Z,79.80
2022-11-12T20:58:59.164Z,57.79
2022-11-12T21:01:27.255Z,58.08
2022-11-12T21:03:52.557Z,58.45
2022-11-12T21:06:22.903Z,57.37
2022-11-12T21:08:47.565Z,54.90
2022-11-12T21:11:16.509Z,55.36
2022-11-12T21:13:42.456Z,66.77
2022-11-12T21:16:09.224Z,59.66
2022-11-12T21:18:36.119Z,59.47
2022-11-12T21:21:06.234Z,56.26
2022-11-12T21:23:36.696Z,62.33
2022-11-12T21:26:07.338Z,57.07
2022-11-12T21:28:31.566Z,60.25
2022-11-12T21:30:55.848Z,53.95
2022-11-12T21:33:21.354Z,52.65
2022-11-12T21:35:46.169Z,57.69
2022-11-12T21:38:10.287Z,57.81
2022-11-12T21:40:38.336Z,57.13
2022-11-12T21:43:06.999Z,56.92
2022-11-12T21:45:35.328Z,56.53
2022-11-12T21:48:00.843Z,56.07
2022-11-12T21:50:25.090Z,53.60
2022-11-12T21:52:49.328Z,50.71
2022-11-12T21:55:14.663Z,49.96
2022-11-12T21:57:41.841Z,49.59
2022-11-12T22:00:39.767Z,47.84
2022-11-12T22:02:53.314Z,47.10
2022-11-12T22:05:18.232Z,48.18
2022-11-12T22:07:42.925Z,50.20
2022-11-12T22:10:09.838Z,50.98
2022-11-12T22:12:34.232Z,49.64
2022-11-12T22:15:01.209Z,50.80
2022-11-12T22:17:26.463Z,51.54
2022-11-12T22:19:50.693Z,51.91
2022-11-12T22:22:14.925Z,54.03
2022-11-12T22:24:41.722Z,52.33
2022-11-12T22:27:09.326Z,53.24
2022-11-12T22:29:33.869Z,55.62
2022-11-12T22:32:01.694Z,53.26
2022-11-12T22:34:26.165Z,56.16
2022-11-12T22:36:50.725Z,52.15
2022-11-12T22:39:16.026Z,54.74
2022-11-12T22:41:40.720Z,56.02
2022-11-12T22:44:06.411Z,54.89
2022-11-12T22:46:35.050Z,55.75
2022-11-12T22:49:02.111Z,57.22
2022-11-12T22:51:29.488Z,61.31
2022-11-12T22:53:58.584Z,56.20
2022-11-12T22:56:25.297Z,57.84
2022-11-12T22:58:50.611Z,61.80
2022-11-12T23:01:26.036Z,58.14
2022-11-12T23:03:50.546Z,52.70
2022-11-12T23:06:19.350Z,56.14
2022-11-12T23:08:43.859Z,55.29
2022-11-12T23:11:12.827Z,56.08
2022-11-12T23:13:38.505Z,52.09
2022-11-12T23:16:06.222Z,50.95
2022-11-12T23:18:31.628Z,48.98
2022-11-12T23:20:57.101Z,47.36
2022-11-12T23:23:24.091Z,48.11
2022-11-12T23:25:48.770Z,47.73
2022-11-12T23:28:14.540Z,49.92
2022-11-12T23:30:41.218Z,46.82
2022-11-12T23:33:05.964Z,48.79
2022-11-12T23:35:31.868Z,50.12
2022-11-12T23:37:56.433Z,48.67
2022-11-12T23:40:30.995Z,49.42
2022-11-12T23:42:57.515Z,50.67
2022-11-12T23:45:22.059Z,50.68
2022-11-12T23:47:46.448Z,54.18
2022-11-12T23:50:12.339Z,49.59
2022-11-12T23:52:39.602Z,49.28
2022-11-12T23:55:05.284Z,50.50
2022-11-12T23:57:33.145Z,53.57
2022-11-12T23:59:57.641Z,57.27
